sensor_id;sensor_type;location;lat;lon;timestamp;pressure;altitude;pressure_sealevel;temperature;humidity
19023;BME280;35226;48.606;8.858;2023-05-01T00:01:01;96205.75;;;11.37;100.00
19023;BME280;35226;48.606;8.858;2023-05-01T00:03:30;96203.91;;;11.34;100.00
19023;BME280;35226;48.606;8.858;2023-05-01T00:06:00;96198.81;;;11.32;100.00
19023;BME280;35226;48.606;8.858;2023-05-01T00:08:26;96201.56;;;11.32;100.00
19023;BME280;35226;48.606;8.858;2023-05-01T00:10:52;96186.22;;;11.31;100.00
19023;BME280;35226;48.606;8.858;2023-05-01T00:13:17;96194.81;;;11.33;100.00
19023;BME280;35226;48.606;8.858;2023-05-01T00:15:46;96190.84;;;11.34;100.00
19023;BME280;35226;48.606;8.858;2023-05-01T00:18:12;96184.97;;;11.32;100.00
19023;BME280;35226;48.606;8.858;2023-05-01T00:20:38;96184.59;;;11.21;100.00
19023;BME280;35226;48.606;8.858;2023-05-01T00:23:03;96187.41;;;11.08;100.00
19023;BME280;35226;48.606;8.858;2023-05-01T00:25:29;96180.88;;;11.15;100.00
19023;BME280;35226;48.606;8.858;2023-05-01T00:27:55;96178.88;;;11.16;100.00
19023;BME280;35226;48.606;8.858;2023-05-01T00:30:21;96185.63;;;11.15;100.00
19023;BME280;35226;48.606;8.858;2023-05-01T00:32:47;96175.66;;;11.17;100.00
19023;BME280;35226;48.606;8.858;2023-05-01T00:35:12;96176.06;;;11.06;100.00
19023;BME280;35226;48.606;8.858;2023-05-01T00:37:38;96174.31;;;11.00;100.00
19023;BME280;35226;48.606;8.858;2023-05-01T00:40:04;96167.22;;;10.99;100.00
19023;BME280;35226;48.606;8.858;2023-05-01T00:42:36;96172.25;;;10.91;100.00
19023;BME280;35226;48.606;8.858;2023-05-01T00:45:05;96163.63;;;10.89;100.00
19023;BME280;35226;48.606;8.858;2023-05-01T00:47:31;96161.44;;;10.84;100.00
19023;BME280;35226;48.606;8.858;2023-05-01T00:49:58;96159.91;;;10.83;100.00
19023;BME280;35226;48.606;8.858;2023-05-01T00:52:24;96162.13;;;10.75;100.00
19023;BME280;35226;48.606;8.858;2023-05-01T00:54:50;96158.38;;;10.69;100.00
19023;BME280;35226;48.606;8.858;2023-05-01T00:57:20;96153.00;;;10.66;100.00
19023;BME280;35226;48.606;8.858;2023-05-01T00:59:46;96152.09;;;10.69;100.00
19023;BME280;35226;48.606;8.858;2023-05-01T01:02:12;96153.22;;;10.59;100.00
19023;BME280;35226;48.606;8.858;2023-05-01T01:04:43;96149.56;;;10.62;100.00
19023;BME280;35226;48.606;8.858;2023-05-01T01:15:33;96135.44;;;10.60;100.00
19023;BME280;35226;48.606;8.858;2023-05-01T01:18:06;96133.66;;;10.66;100.00
19023;BME280;35226;48.606;8.858;2023-05-01T01:26:12;96128.91;;;10.66;100.00
19023;BME280;35226;48.606;8.858;2023-05-01T01:31:32;96120.63;;;10.66;100.00
19023;BME280;35226;48.606;8.858;2023-05-01T01:39:11;96112.53;;;10.72;100.00
19023;BME280;35226;48.606;8.858;2023-05-01T01:41:39;96118.94;;;10.69;100.00
19023;BME280;35226;48.606;8.858;2023-05-01T01:44:32;96124.47;;;10.69;100.00
19023;BME280;35226;48.606;8.858;2023-05-01T01:47:01;96120.16;;;10.68;100.00
19023;BME280;35226;48.606;8.858;2023-05-01T01:49:30;96116.06;;;10.72;100.00
19023;BME280;35226;48.606;8.858;2023-05-01T01:51:58;96116.16;;;10.69;100.00
19023;BME280;35226;48.606;8.858;2023-05-01T01:54:32;96110.47;;;10.63;100.00
19023;BME280;35226;48.606;8.858;2023-05-01T01:57:01;96111.00;;;10.58;100.00
19023;BME280;35226;48.606;8.858;2023-05-01T01:59:30;96110.38;;;10.54;100.00
19023;BME280;35226;48.606;8.858;2023-05-01T02:01:58;96115.56;;;10.52;100.00
19023;BME280;35226;48.606;8.858;2023-05-01T02:04:26;96116.47;;;10.49;100.00
19023;BME280;35226;48.606;8.858;2023-05-01T02:06:54;96108.75;;;10.44;100.00
19023;BME280;35226;48.606;8.858;2023-05-01T02:09:22;96106.63;;;10.48;100.00
19023;BME280;35226;48.606;8.858;2023-05-01T02:11:49;96107.88;;;10.47;100.00
19023;BME280;35226;48.606;8.858;2023-05-01T02:14:17;96095.13;;;10.50;100.00
19023;BME280;35226;48.606;8.858;2023-05-01T02:16:43;96103.56;;;10.46;100.00
19023;BME280;35226;48.606;8.858;2023-05-01T02:19:10;96091.31;;;10.47;100.00
19023;BME280;35226;48.606;8.858;2023-05-01T02:21:38;96097.78;;;10.53;100.00
19023;BME280;35226;48.606;8.858;2023-05-01T02:24:04;96088.72;;;10.53;100.00
19023;BME280;35226;48.606;8.858;2023-05-01T02:26:40;96086.16;;;10.58;100.00
19023;BME280;35226;48.606;8.858;2023-05-01T02:29:06;96094.13;;;10.56;100.00
19023;BME280;35226;48.606;8.858;2023-05-01T02:31:33;96089.38;;;10.57;100.00
19023;BME280;35226;48.606;8.858;2023-05-01T02:33:58;96088.03;;;10.61;100.00
19023;BME280;35226;48.606;8.858;2023-05-01T02:36:24;96090.78;;;10.61;100.00
19023;BME280;35226;48.606;8.858;2023-05-01T02:38:50;96087.13;;;10.64;100.00
19023;BME280;35226;48.606;8.858;2023-05-01T02:41:15;96087.47;;;10.66;100.00
19023;BME280;35226;48.606;8.858;2023-05-01T02:43:45;96078.91;;;10.73;100.00
19023;BME280;35226;48.606;8.858;2023-05-01T02:46:14;96077.69;;;10.74;100.00
19023;BME280;35226;48.606;8.858;2023-05-01T02:48:41;96074.16;;;10.74;100.00
19023;BME280;35226;48.606;8.858;2023-05-01T02:51:07;96073.72;;;10.75;100.00
19023;BME280;35226;48.606;8.858;2023-05-01T02:53:34;96073.72;;;10.75;100.00
19023;BME280;35226;48.606;8.858;2023-05-01T02:56:09;96071.72;;;10.76;100.00
19023;BME280;35226;48.606;8.858;2023-05-01T02:58:35;96067.09;;;10.73;100.00
19023;BME280;35226;48.606;8.858;2023-05-01T03:01:00;96063.44;;;10.76;100.00
19023;BME280;35226;48.606;8.858;2023-05-01T03:03:26;96067.88;;;10.73;100.00
19023;BME280;35226;48.606;8.858;2023-05-01T03:05:52;96057.44;;;10.77;100.00
19023;BME280;35226;48.606;8.858;2023-05-01T03:08:17;96058.97;;;10.79;100.00
19023;BME280;35226;48.606;8.858;2023-05-01T03:10:43;96052.69;;;10.78;100.00
19023;BME280;35226;48.606;8.858;2023-05-01T03:13:09;96056.44;;;10.84;100.00
19023;BME280;35226;48.606;8.858;2023-05-01T03:15:36;96058.97;;;10.79;100.00
19023;BME280;35226;48.606;8.858;2023-05-01T03:18:02;96051.03;;;10.81;100.00
19023;BME280;35226;48.606;8.858;2023-05-01T03:20:28;96052.88;;;10.84;100.00
19023;BME280;35226;48.606;8.858;2023-05-01T03:22:54;96059.97;;;10.85;100.00
19023;BME280;35226;48.606;8.858;2023-05-01T03:25:20;96044.59;;;10.84;100.00
19023;BME280;35226;48.606;8.858;2023-05-01T03:27:46;96043.50;;;10.81;100.00
19023;BME280;35226;48.606;8.858;2023-05-01T03:30:12;96045.38;;;10.84;100.00
19023;BME280;35226;48.606;8.858;2023-05-01T03:32:39;96047.94;;;10.79;100.00
19023;BME280;35226;48.606;8.858;2023-05-01T03:35:09;96044.66;;;10.71;100.00
19023;BME280;35226;48.606;8.858;2023-05-01T03:37:35;96041.06;;;10.61;100.00
19023;BME280;35226;48.606;8.858;2023-05-01T03:40:01;96038.41;;;10.58;100.00
19023;BME280;35226;48.606;8.858;2023-05-01T03:42:46;96039.78;;;10.53;100.00
19023;BME280;35226;48.606;8.858;2023-05-01T03:45:18;96043.44;;;10.50;100.00
19023;BME280;35226;48.606;8.858;2023-05-01T03:47:43;96041.00;;;10.52;100.00
19023;BME280;35226;48.606;8.858;2023-05-01T03:50:09;96032.53;;;10.47;100.00
19023;BME280;35226;48.606;8.858;2023-05-01T03:52:38;96036.97;;;10.44;100.00
19023;BME280;35226;48.606;8.858;2023-05-01T03:55:04;96033.53;;;10.40;100.00
19023;BME280;35226;48.606;8.858;2023-05-01T03:57:40;96031.38;;;10.35;100.00
19023;BME280;35226;48.606;8.858;2023-05-01T04:00:07;96035.34;;;10.34;100.00
19023;BME280;35226;48.606;8.858;2023-05-01T04:02:44;96032.06;;;10.26;100.00
19023;BME280;35226;48.606;8.858;2023-05-01T04:05:13;96033.28;;;10.25;100.00
19023;BME280;35226;48.606;8.858;2023-05-01T04:07:43;96037.00;;;10.31;100.00
19023;BME280;35226;48.606;8.858;2023-05-01T04:10:09;96036.00;;;10.38;100.00
19023;BME280;35226;48.606;8.858;2023-05-01T04:12:42;96041.38;;;10.42;100.00
19023;BME280;35226;48.606;8.858;2023-05-01T04:15:08;96035.53;;;10.39;100.00
19023;BME280;35226;48.606;8.858;2023-05-01T04:17:35;96042.94;;;10.43;100.00
19023;BME280;35226;48.606;8.858;2023-05-01T04:20:02;96042.94;;;10.43;100.00
19023;BME280;35226;48.606;8.858;2023-05-01T04:22:29;96041.97;;;10.36;100.00
19023;BME280;35226;48.606;8.858;2023-05-01T04:24:54;96043.50;;;10.37;100.00
19023;BME280;35226;48.606;8.858;2023-05-01T04:27:20;96041.06;;;10.39;100.00
19023;BME280;35226;48.606;8.858;2023-05-01T04:29:46;96040.16;;;10.43;100.00
19023;BME280;35226;48.606;8.858;2023-05-01T04:32:12;96044.28;;;10.38;100.00
19023;BME280;35226;48.606;8.858;2023-05-01T04:34:37;96039.38;;;10.42;100.00
19023;BME280;35226;48.606;8.858;2023-05-01T04:37:03;96038.63;;;10.42;100.00
19023;BME280;35226;48.606;8.858;2023-05-01T04:39:31;96052.75;;;10.44;100.00
19023;BME280;35226;48.606;8.858;2023-05-01T04:41:57;96048.78;;;10.45;100.00
19023;BME280;35226;48.606;8.858;2023-05-01T04:44:23;96048.34;;;10.46;100.00
19023;BME280;35226;48.606;8.858;2023-05-01T04:46:49;96050.75;;;10.44;100.00
19023;BME280;35226;48.606;8.858;2023-05-01T04:49:14;96049.22;;;10.43;100.00
19023;BME280;35226;48.606;8.858;2023-05-01T04:51:40;96047.34;;;10.40;100.00
19023;BME280;35226;48.606;8.858;2023-05-01T04:54:10;96046.91;;;10.42;100.00
19023;BME280;35226;48.606;8.858;2023-05-01T04:56:37;96046.47;;;10.43;100.00
19023;BME280;35226;48.606;8.858;2023-05-01T04:59:03;96052.31;;;10.45;100.00
19023;BME280;35226;48.606;8.858;2023-05-01T05:01:29;96044.66;;;10.49;100.00
19023;BME280;35226;48.606;8.858;2023-05-01T05:03:55;96047.88;;;10.48;100.00
19023;BME280;35226;48.606;8.858;2023-05-01T05:06:21;96049.72;;;10.51;100.00
19023;BME280;35226;48.606;8.858;2023-05-01T05:08:47;96052.06;;;10.52;100.00
19023;BME280;35226;48.606;8.858;2023-05-01T05:11:19;96048.50;;;10.52;100.00
19023;BME280;35226;48.606;8.858;2023-05-01T05:14:06;96058.78;;;10.51;100.00
19023;BME280;35226;48.606;8.858;2023-05-01T05:16:32;96064.00;;;10.49;100.00
19023;BME280;35226;48.606;8.858;2023-05-01T05:18:59;96059.69;;;10.48;100.00
19023;BME280;35226;48.606;8.858;2023-05-01T05:21:27;96061.81;;;10.44;100.00
19023;BME280;35226;48.606;8.858;2023-05-01T05:23:55;96058.59;;;10.46;100.00
19023;BME280;35226;48.606;8.858;2023-05-01T05:26:21;96062.91;;;10.47;100.00
19023;BME280;35226;48.606;8.858;2023-05-01T05:28:49;96062.44;;;10.48;100.00
19023;BME280;35226;48.606;8.858;2023-05-01T05:31:15;96061.22;;;10.49;100.00
19023;BME280;35226;48.606;8.858;2023-05-01T05:33:41;96061.88;;;10.53;100.00
19023;BME280;35226;48.606;8.858;2023-05-01T05:36:07;96067.41;;;10.53;100.00
19023;BME280;35226;48.606;8.858;2023-05-01T05:38:38;96064.06;;;10.58;100.00
19023;BME280;35226;48.606;8.858;2023-05-01T05:41:06;96067.59;;;10.59;100.00
19023;BME280;35226;48.606;8.858;2023-05-01T05:43:32;96073.00;;;10.62;100.00
19023;BME280;35226;48.606;8.858;2023-05-01T05:45:58;96069.78;;;10.64;100.00
19023;BME280;35226;48.606;8.858;2023-05-01T05:48:25;96063.38;;;10.67;100.00
19023;BME280;35226;48.606;8.858;2023-05-01T05:50:51;96068.44;;;10.68;100.00
19023;BME280;35226;48.606;8.858;2023-05-01T05:53:18;96064.34;;;10.73;100.00
19023;BME280;35226;48.606;8.858;2023-05-01T05:55:45;96059.56;;;10.73;100.00
19023;BME280;35226;48.606;8.858;2023-05-01T05:58:11;96055.38;;;10.69;100.00
19023;BME280;35226;48.606;8.858;2023-05-01T06:00:36;96059.31;;;10.81;100.00
19023;BME280;35226;48.606;8.858;2023-05-01T06:03:04;96069.03;;;10.85;100.00
19023;BME280;35226;48.606;8.858;2023-05-01T06:05:31;96068.69;;;10.83;100.00
19023;BME280;35226;48.606;8.858;2023-05-01T06:07:56;96065.50;;;10.85;100.00
19023;BME280;35226;48.606;8.858;2023-05-01T06:10:22;96064.38;;;10.82;100.00
19023;BME280;35226;48.606;8.858;2023-05-01T06:12:47;96069.31;;;10.87;100.00
19023;BME280;35226;48.606;8.858;2023-05-01T06:15:13;96059.47;;;10.77;100.00
19023;BME280;35226;48.606;8.858;2023-05-01T06:17:45;96064.56;;;10.88;100.00
19023;BME280;35226;48.606;8.858;2023-05-01T06:20:11;96060.97;;;11.00;100.00
19023;BME280;35226;48.606;8.858;2023-05-01T06:22:38;96062.50;;;11.01;100.00
19023;BME280;35226;48.606;8.858;2023-05-01T06:25:16;96065.72;;;10.99;100.00
19023;BME280;35226;48.606;8.858;2023-05-01T06:27:42;96069.84;;;10.95;100.00
19023;BME280;35226;48.606;8.858;2023-05-01T06:30:08;96055.94;;;11.07;100.00
19023;BME280;35226;48.606;8.858;2023-05-01T06:32:35;96061.97;;;11.15;100.00
19023;BME280;35226;48.606;8.858;2023-05-01T06:35:01;96060.59;;;11.20;100.00
19023;BME280;35226;48.606;8.858;2023-05-01T06:37:26;96067.03;;;11.17;100.00
19023;BME280;35226;48.606;8.858;2023-05-01T06:39:52;96069.56;;;11.24;100.00
19023;BME280;35226;48.606;8.858;2023-05-01T06:42:21;96073.38;;;11.26;100.00
19023;BME280;35226;48.606;8.858;2023-05-01T06:44:46;96070.19;;;11.28;100.00
19023;BME280;35226;48.606;8.858;2023-05-01T06:47:12;96072.16;;;11.27;100.00
19023;BME280;35226;48.606;8.858;2023-05-01T06:49:38;96068.69;;;11.36;100.00
19023;BME280;35226;48.606;8.858;2023-05-01T06:52:05;96071.88;;;11.25;100.00
19023;BME280;35226;48.606;8.858;2023-05-01T06:54:31;96073.25;;;11.30;100.00
19023;BME280;35226;48.606;8.858;2023-05-01T06:56:57;96076.91;;;11.27;100.00
19023;BME280;35226;48.606;8.858;2023-05-01T06:59:22;96080.75;;;11.20;100.00
19023;BME280;35226;48.606;8.858;2023-05-01T07:01:49;96072.50;;;11.29;100.00
19023;BME280;35226;48.606;8.858;2023-05-01T07:09:39;96073.78;;;11.46;100.00
19023;BME280;35226;48.606;8.858;2023-05-01T07:17:22;96074.16;;;11.58;100.00
19023;BME280;35226;48.606;8.858;2023-05-01T07:19:47;96078.78;;;11.61;100.00
19023;BME280;35226;48.606;8.858;2023-05-01T07:22:14;96070.81;;;11.63;100.00
19023;BME280;35226;48.606;8.858;2023-05-01T07:24:40;96070.34;;;11.64;100.00
19023;BME280;35226;48.606;8.858;2023-05-01T07:27:06;96071.41;;;11.67;100.00
19023;BME280;35226;48.606;8.858;2023-05-01T07:29:31;96070.25;;;11.77;100.00
19023;BME280;35226;48.606;8.858;2023-05-01T07:31:57;96068.13;;;11.90;100.00
19023;BME280;35226;48.606;8.858;2023-05-01T07:34:23;96068.72;;;11.85;100.00
19023;BME280;35226;48.606;8.858;2023-05-01T07:36:48;96054.16;;;11.94;100.00
19023;BME280;35226;48.606;8.858;2023-05-01T07:39:14;96068.16;;;11.99;100.00
19023;BME280;35226;48.606;8.858;2023-05-01T07:41:41;96071.56;;;12.12;100.00
19023;BME280;35226;48.606;8.858;2023-05-01T07:44:07;96062.03;;;12.13;100.00
19023;BME280;35226;48.606;8.858;2023-05-01T07:46:33;96062.19;;;12.10;100.00
19023;BME280;35226;48.606;8.858;2023-05-01T07:49:03;96055.56;;;12.26;100.00
19023;BME280;35226;48.606;8.858;2023-05-01T07:51:30;96059.88;;;12.27;100.00
19023;BME280;35226;48.606;8.858;2023-05-01T07:53:55;96054.66;;;12.47;100.00
19023;BME280;35226;48.606;8.858;2023-05-01T07:56:21;96056.53;;;12.50;100.00
19023;BME280;35226;48.606;8.858;2023-05-01T07:58:47;96057.44;;;12.47;100.00
19023;BME280;35226;48.606;8.858;2023-05-01T08:01:12;96047.44;;;12.49;100.00
19023;BME280;35226;48.606;8.858;2023-05-01T08:03:38;96052.84;;;12.62;100.00
19023;BME280;35226;48.606;8.858;2023-05-01T08:06:04;96054.66;;;12.74;100.00
19023;BME280;35226;48.606;8.858;2023-05-01T08:08:30;96054.63;;;12.83;100.00
19023;BME280;35226;48.606;8.858;2023-05-01T08:10:55;96060.78;;;12.96;100.00
19023;BME280;35226;48.606;8.858;2023-05-01T08:13:21;96056.75;;;13.07;100.00
19023;BME280;35226;48.606;8.858;2023-05-01T08:15:46;96056.28;;;13.26;100.00
19023;BME280;35226;48.606;8.858;2023-05-01T08:18:13;96045.22;;;13.08;100.00
19023;BME280;35226;48.606;8.858;2023-05-01T08:20:46;96047.50;;;13.28;100.00
19023;BME280;35226;48.606;8.858;2023-05-01T08:23:15;96047.28;;;13.50;100.00
19023;BME280;35226;48.606;8.858;2023-05-01T08:25:41;96045.84;;;13.54;100.00
19023;BME280;35226;48.606;8.858;2023-05-01T08:28:07;96042.44;;;13.59;100.00
19023;BME280;35226;48.606;8.858;2023-05-01T08:30:33;96047.44;;;13.46;100.00
19023;BME280;35226;48.606;8.858;2023-05-01T08:32:58;96050.88;;;13.65;100.00
19023;BME280;35226;48.606;8.858;2023-05-01T08:35:24;96046.16;;;13.56;100.00
19023;BME280;35226;48.606;8.858;2023-05-01T08:37:49;96043.50;;;13.62;100.00
19023;BME280;35226;48.606;8.858;2023-05-01T08:40:15;96037.34;;;13.58;100.00
19023;BME280;35226;48.606;8.858;2023-05-01T08:42:41;96040.69;;;13.71;100.00
19023;BME280;35226;48.606;8.858;2023-05-01T08:45:07;96042.72;;;13.94;100.00
19023;BME280;35226;48.606;8.858;2023-05-01T08:47:38;96042.88;;;13.91;100.00
19023;BME280;35226;48.606;8.858;2023-05-01T08:50:08;96041.69;;;13.83;100.00
19023;BME280;35226;48.606;8.858;2023-05-01T08:52:35;96049.16;;;14.00;100.00
19023;BME280;35226;48.606;8.858;2023-05-01T08:55:03;96046.97;;;14.04;100.00
19023;BME280;35226;48.606;8.858;2023-05-01T08:57:29;96055.31;;;14.28;100.00
19023;BME280;35226;48.606;8.858;2023-05-01T08:59:54;96044.75;;;14.41;100.00
19023;BME280;35226;48.606;8.858;2023-05-01T09:02:22;96049.25;;;14.39;100.00
19023;BME280;35226;48.606;8.858;2023-05-01T09:04:50;96039.47;;;14.43;100.00
19023;BME280;35226;48.606;8.858;2023-05-01T09:07:15;96049.34;;;14.68;100.00
19023;BME280;35226;48.606;8.858;2023-05-01T09:09:42;96040.59;;;14.75;100.00
19023;BME280;35226;48.606;8.858;2023-05-01T09:12:21;96043.09;;;14.73;100.00
19023;BME280;35226;48.606;8.858;2023-05-01T09:14:52;96045.41;;;14.90;100.00
19023;BME280;35226;48.606;8.858;2023-05-01T09:17:19;96036.78;;;15.02;100.00
19023;BME280;35226;48.606;8.858;2023-05-01T09:19:46;96037.47;;;15.27;100.00
19023;BME280;35226;48.606;8.858;2023-05-01T09:22:12;96041.28;;;15.44;100.00
19023;BME280;35226;48.606;8.858;2023-05-01T09:24:38;96042.94;;;15.36;100.00
19023;BME280;35226;48.606;8.858;2023-05-01T09:27:04;96040.53;;;15.43;100.00
19023;BME280;35226;48.606;8.858;2023-05-01T09:29:38;96041.81;;;15.28;100.00
19023;BME280;35226;48.606;8.858;2023-05-01T09:32:18;96044.25;;;15.40;100.00
19023;BME280;35226;48.606;8.858;2023-05-01T09:34:52;96038.09;;;15.51;100.00
19023;BME280;35226;48.606;8.858;2023-05-01T09:37:29;96035.72;;;15.59;100.00
19023;BME280;35226;48.606;8.858;2023-05-01T09:40:07;96042.53;;;15.43;100.00
19023;BME280;35226;48.606;8.858;2023-05-01T09:42:35;96039.75;;;15.58;100.00
19023;BME280;35226;48.606;8.858;2023-05-01T09:45:11;96043.38;;;15.49;100.00
19023;BME280;35226;48.606;8.858;2023-05-01T09:47:41;96037.94;;;15.54;100.00
19023;BME280;35226;48.606;8.858;2023-05-01T09:50:08;96036.19;;;15.72;100.00
19023;BME280;35226;48.606;8.858;2023-05-01T09:52:34;96033.97;;;15.76;100.00
19023;BME280;35226;48.606;8.858;2023-05-01T09:55:16;96040.56;;;15.78;100.00
19023;BME280;35226;48.606;8.858;2023-05-01T09:57:44;96039.44;;;15.85;100.00
19023;BME280;35226;48.606;8.858;2023-05-01T10:00:12;96044.47;;;16.01;100.00
19023;BME280;35226;48.606;8.858;2023-05-01T10:02:44;96034.41;;;15.89;100.00
19023;BME280;35226;48.606;8.858;2023-05-01T10:05:11;96039.69;;;15.87;100.00
19023;BME280;35226;48.606;8.858;2023-05-01T10:07:37;96036.94;;;15.72;100.00
19023;BME280;35226;48.606;8.858;2023-05-01T10:10:20;96038.13;;;15.66;100.00
19023;BME280;35226;48.606;8.858;2023-05-01T10:12:46;96040.91;;;15.66;100.00
19023;BME280;35226;48.606;8.858;2023-05-01T10:15:11;96039.03;;;15.77;100.00
19023;BME280;35226;48.606;8.858;2023-05-01T10:17:38;96036.38;;;15.53;100.00
19023;BME280;35226;48.606;8.858;2023-05-01T10:20:06;96035.28;;;15.80;100.00
19023;BME280;35226;48.606;8.858;2023-05-01T10:22:32;96038.66;;;15.84;100.00
19023;BME280;35226;48.606;8.858;2023-05-01T10:24:59;96044.19;;;15.64;100.00
19023;BME280;35226;48.606;8.858;2023-05-01T10:27:25;96041.94;;;15.68;100.00
19023;BME280;35226;48.606;8.858;2023-05-01T10:29:54;96045.31;;;15.43;100.00
19023;BME280;35226;48.606;8.858;2023-05-01T10:32:20;96047.06;;;15.26;100.00
19023;BME280;35226;48.606;8.858;2023-05-01T10:35:18;96047.53;;;15.39;100.00
19023;BME280;35226;48.606;8.858;2023-05-01T10:37:50;96046.28;;;15.40;100.00
19023;BME280;35226;48.606;8.858;2023-05-01T10:40:43;96052.06;;;15.36;100.00
19023;BME280;35226;48.606;8.858;2023-05-01T10:43:20;96044.28;;;15.26;100.00
19023;BME280;35226;48.606;8.858;2023-05-01T10:45:51;96050.97;;;14.90;100.00
19023;BME280;35226;48.606;8.858;2023-05-01T10:51:15;96053.59;;;15.08;100.00
19023;BME280;35226;48.606;8.858;2023-05-01T10:53:43;96050.69;;;14.88;100.00
19023;BME280;35226;48.606;8.858;2023-05-01T10:59:01;96048.88;;;14.99;100.00
19023;BME280;35226;48.606;8.858;2023-05-01T11:01:43;96041.22;;;14.94;100.00
19023;BME280;35226;48.606;8.858;2023-05-01T11:09:42;96041.50;;;15.26;100.00
19023;BME280;35226;48.606;8.858;2023-05-01T11:12:09;96040.63;;;15.19;100.00
19023;BME280;35226;48.606;8.858;2023-05-01T11:20:12;96040.69;;;15.84;100.00
19023;BME280;35226;48.606;8.858;2023-05-01T11:22:44;96031.22;;;15.96;100.00
19023;BME280;35226;48.606;8.858;2023-05-01T11:25:24;96031.50;;;16.39;100.00
19023;BME280;35226;48.606;8.858;2023-05-01T11:27:54;96026.25;;;16.87;100.00
19023;BME280;35226;48.606;8.858;2023-05-01T11:30:20;96025.72;;;17.09;100.00
19023;BME280;35226;48.606;8.858;2023-05-01T11:32:48;96018.66;;;17.13;100.00
19023;BME280;35226;48.606;8.858;2023-05-01T11:35:23;96016.38;;;17.43;100.00
19023;BME280;35226;48.606;8.858;2023-05-01T11:37:51;96018.31;;;17.63;100.00
19023;BME280;35226;48.606;8.858;2023-05-01T11:40:24;96011.69;;;17.60;100.00
19023;BME280;35226;48.606;8.858;2023-05-01T11:42:59;96009.88;;;17.89;100.00
19023;BME280;35226;48.606;8.858;2023-05-01T11:45:25;96012.94;;;18.44;100.00
19023;BME280;35226;48.606;8.858;2023-05-01T11:47:50;96004.88;;;18.63;100.00
19023;BME280;35226;48.606;8.858;2023-05-01T11:50:16;96005.94;;;18.18;100.00
19023;BME280;35226;48.606;8.858;2023-05-01T11:52:49;96001.03;;;18.55;100.00
19023;BME280;35226;48.606;8.858;2023-05-01T11:55:18;96005.84;;;18.49;100.00
19023;BME280;35226;48.606;8.858;2023-05-01T11:57:48;96007.00;;;18.31;100.00
19023;BME280;35226;48.606;8.858;2023-05-01T12:00:15;96004.34;;;18.05;100.00
19023;BME280;35226;48.606;8.858;2023-05-01T12:03:01;96003.38;;;18.08;100.00
19023;BME280;35226;48.606;8.858;2023-05-01T12:05:28;95994.81;;;17.81;100.00
19023;BME280;35226;48.606;8.858;2023-05-01T12:08:13;95994.81;;;17.81;100.00
19023;BME280;35226;48.606;8.858;2023-05-01T12:10:46;95988.19;;;17.72;100.00
19023;BME280;35226;48.606;8.858;2023-05-01T12:13:12;95995.69;;;17.98;100.00
19023;BME280;35226;48.606;8.858;2023-05-01T12:15:44;95993.47;;;18.13;99.36
19023;BME280;35226;48.606;8.858;2023-05-01T12:18:11;95989.13;;;18.06;100.00
19023;BME280;35226;48.606;8.858;2023-05-01T12:23:05;95987.44;;;17.78;100.00
19023;BME280;35226;48.606;8.858;2023-05-01T12:25:32;95997.34;;;17.79;100.00
19023;BME280;35226;48.606;8.858;2023-05-01T12:28:07;95995.06;;;17.77;100.00
19023;BME280;35226;48.606;8.858;2023-05-01T12:30:34;95994.88;;;17.55;100.00
19023;BME280;35226;48.606;8.858;2023-05-01T12:33:16;96004.34;;;17.31;100.00
19023;BME280;35226;48.606;8.858;2023-05-01T12:35:43;96011.28;;;16.84;100.00
19023;BME280;35226;48.606;8.858;2023-05-01T12:40:48;96007.81;;;16.08;100.00
19023;BME280;35226;48.606;8.858;2023-05-01T12:43:16;96014.00;;;15.98;100.00
19023;BME280;35226;48.606;8.858;2023-05-01T12:45:42;96013.66;;;15.90;100.00
19023;BME280;35226;48.606;8.858;2023-05-01T12:48:11;96016.22;;;15.73;100.00
19023;BME280;35226;48.606;8.858;2023-05-01T12:50:38;96014.59;;;15.87;100.00
19023;BME280;35226;48.606;8.858;2023-05-01T12:53:03;96014.59;;;15.67;100.00
19023;BME280;35226;48.606;8.858;2023-05-01T12:55:30;96011.81;;;15.52;100.00
19023;BME280;35226;48.606;8.858;2023-05-01T12:57:58;96017.19;;;15.41;100.00
19023;BME280;35226;48.606;8.858;2023-05-01T13:00:23;96011.34;;;15.39;100.00
19023;BME280;35226;48.606;8.858;2023-05-01T13:02:49;96007.63;;;15.27;100.00
19023;BME280;35226;48.606;8.858;2023-05-01T13:05:15;96001.84;;;15.31;100.00
19023;BME280;35226;48.606;8.858;2023-05-01T13:07:46;96006.47;;;15.34;100.00
19023;BME280;35226;48.606;8.858;2023-05-01T13:10:12;95998.00;;;15.43;100.00
19023;BME280;35226;48.606;8.858;2023-05-01T13:15:20;96002.41;;;15.64;100.00
19023;BME280;35226;48.606;8.858;2023-05-01T13:17:46;95998.41;;;15.85;100.00
19023;BME280;35226;48.606;8.858;2023-05-01T13:20:12;96004.50;;;16.24;100.00
19023;BME280;35226;48.606;8.858;2023-05-01T13:38:56;95993.28;;;17.17;100.00
19023;BME280;35226;48.606;8.858;2023-05-01T13:41:23;95985.16;;;17.13;100.00
19023;BME280;35226;48.606;8.858;2023-05-01T13:43:51;95982.97;;;17.23;100.00
19023;BME280;35226;48.606;8.858;2023-05-01T13:46:19;95983.03;;;17.02;100.00
19023;BME280;35226;48.606;8.858;2023-05-01T13:48:46;95987.41;;;17.09;100.00
19023;BME280;35226;48.606;8.858;2023-05-01T13:51:12;95987.75;;;16.91;100.00
19023;BME280;35226;48.606;8.858;2023-05-01T13:53:40;95991.34;;;16.97;100.00
19023;BME280;35226;48.606;8.858;2023-05-01T13:56:08;95988.84;;;16.99;100.00
19023;BME280;35226;48.606;8.858;2023-05-01T13:58:34;95978.94;;;16.98;100.00
19023;BME280;35226;48.606;8.858;2023-05-01T14:01:00;95985.59;;;16.80;100.00
19023;BME280;35226;48.606;8.858;2023-05-01T14:03:26;95979.22;;;16.74;100.00
19023;BME280;35226;48.606;8.858;2023-05-01T14:05:51;95982.72;;;16.28;100.00
19023;BME280;35226;48.606;8.858;2023-05-01T14:08:20;95992.97;;;16.37;100.00